Latest Weather Observations for Perisher Valley

IDN60901

Issued at 7:01 pm EDT Tuesday 10 December 2019 (issued every 10 minutes, with the page automatically refreshed every 10 minutes)

About weather observations | Map of Canberra area stations | Latest observations for Canberra area | Other Formats
Station Details ID: 071075 Name: PERISHER VALLEY AWS Lat: -36.41 Lon: 148.41 Height: 1738.0 m
Data from the previous 72 hours. | See also: Recent months at Perisher Valley
Date/Time
EDT
Temp
°C
App
Temp
°C
Dew
Point
°C
Rel
Hum
%
Delta-T
°C
Wind Press
QNH
hPa
Press
MSL
hPa
Rain since
9am
mm
Dir  Spd
km/h
Gust
km/h
Spd
kts
Gust
kts
10/07:00pm 20.5 17.3 2.8 31 9.1 WNW 9 22 5 12 - - 0.0
10/06:30pm 20.5 16.4 2.3 30 9.3 W 13 26 7 14 - - 0.0
10/06:00pm 21.9 17.0 2.1 27 10.1 W 17 39 9 21 - - 0.0
10/05:30pm 22.0 17.6 2.7 28 10.0 WNW 15 33 8 18 - - 0.0
10/05:00pm 22.1 17.0 2.8 28 10.0 WNW 19 37 10 20 - - 0.0
10/04:30pm 22.1 17.4 3.3 29 9.8 W 17 35 9 19 - - 0.0
10/04:00pm 22.4 17.6 4.5 31 9.6 W 19 39 10 21 - - 0.0
10/03:30pm 22.3 17.5 4.8 32 9.4 W 19 43 10 23 - - 0.0
10/03:00pm 22.3 17.7 5.7 34 9.1 WNW 19 41 10 22 - - 0.0
10/02:30pm 21.8 17.6 5.7 35 8.8 WNW 17 37 9 20 - - 0.0
10/02:00pm 22.8 19.4 6.1 34 9.2 W 13 32 7 17 - - 0.0
10/01:30pm 22.3 18.9 5.7 34 9.1 WNW 13 30 7 16 - - 0.0
10/01:00pm 21.8 17.3 4.4 32 9.3 W 17 39 9 21 - - 0.0
10/12:30pm 22.4 18.0 4.5 31 9.6 WSW 17 32 9 17 - - 0.0
10/12:00pm 22.8 19.5 4.8 31 9.7 WNW 11 28 6 15 - - 0.0
10/11:30am 22.4 18.1 3.0 28 10.1 W 15 33 8 18 - - 0.0
10/11:00am 21.4 16.9 0.0 24 10.5 WNW 13 28 7 15 - - 0.0
10/10:30am 21.3 15.9 -1.3 22 10.8 W 17 37 9 20 - - 0.0
10/10:00am 21.5 17.9 0.7 25 10.3 NW 9 32 5 17 - - 0.0
10/09:30am 20.9 17.1 1.7 28 9.7 NW 11 22 6 12 - - 0.0
10/09:00am 19.9 16.0 1.4 29 9.2 WNW 11 30 6 16 - - 0.0
10/08:30am 19.9 16.7 0.9 28 9.4 WNW 7 22 4 12 - - 0.0
10/08:00am 19.5 16.5 0.5 28 9.3 NNW 6 17 3 9 - - 0.0
10/07:30am 18.4 15.6 -0.4 28 9.0 N 4 15 2 8 - - 0.0
10/07:00am 14.8 13.3 4.8 51 5.1 NE 2 6 1 3 - - 0.0
10/06:30am 11.4 9.3 1.4 50 4.7 N 2 4 1 2 - - 0.0
10/06:00am 13.0 10.1 -1.3 37 6.4 NNW 4 7 2 4 - - 0.0
10/05:30am 12.6 9.3 -1.0 39 6.1 NW 6 7 3 4 - - 0.0
10/05:00am 11.6 8.4 -0.5 43 5.4 NW 6 7 3 4 - - 0.0
10/04:30am 12.3 9.5 -0.2 42 5.7 NW 4 7 2 4 - - 0.0
10/04:00am 12.2 9.6 0.9 46 5.3 NNW 4 7 2 4 - - 0.0
10/03:30am 9.5 7.3 0.9 55 3.9 NNW 2 6 1 3 - - 0.0
10/03:00am 10.3 7.7 1.2 53 4.2 NW 4 6 2 3 - - 0.0
10/02:30am 10.3 7.8 1.4 54 4.1 NW 4 6 2 3 - - 0.0
10/02:00am 11.4 8.4 0.8 48 4.9 W 6 9 3 5 - - 0.0
10/01:30am 15.4 11.5 1.2 38 6.8 W 11 17 6 9 - - 0.0
10/01:00am 15.7 11.8 1.4 38 6.9 W 11 17 6 9 - - 0.0
10/12:30am 15.4 12.1 2.2 41 6.5 W 9 15 5 8 - - 0.0
10/12:00am 10.7 8.7 2.3 56 4.0 WNW 2 6 1 3 - - 0.0
 
Date/Time
EDT
Temp
°C
App
Temp
°C
Dew
Point
°C
Rel
Hum
%
Delta-T
°C
Wind Press
QNH
hPa
Press
MSL
hPa
Rain since
9am
mm
Dir  Spd
km/h
Gust
km/h
Spd
kts
Gust
kts
09/11:30pm 13.2 10.4 1.8 46 5.5 WNW 6 9 3 5 - - 0.0
09/11:00pm 15.2 12.3 2.4 42 6.3 W 7 15 4 8 - - 0.0
09/10:30pm 15.1 11.8 2.3 42 6.3 W 9 17 5 9 - - 0.0
09/10:00pm 15.8 11.8 2.6 41 6.5 W 13 22 7 12 - - 0.0
09/09:30pm 16.0 12.4 3.1 42 6.5 W 11 19 6 10 - - 0.0
09/09:00pm 16.0 12.5 3.4 43 6.4 W 11 19 6 10 - - 0.0
09/08:30pm 16.5 13.1 3.9 43 6.4 W 11 19 6 10 - - 0.0
09/08:00pm 17.4 14.2 3.3 39 7.2 W 9 20 5 11 - - 0.0
09/07:30pm 18.3 14.8 3.4 37 7.6 W 11 22 6 12 - - 0.0
09/07:00pm 19.3 15.0 3.1 34 8.3 W 15 30 8 16 - - 0.0
09/06:30pm 20.1 15.8 3.3 33 8.7 W 15 28 8 15 - - 0.0
09/06:00pm 20.1 14.5 3.3 33 8.7 W 22 35 12 19 - - 0.0
09/05:30pm 19.9 13.8 2.7 32 8.8 W 24 39 13 21 - - 0.0
09/05:00pm 20.1 13.6 2.9 32 8.8 W 26 39 14 21 - - 0.0
09/04:30pm 20.4 13.8 2.3 30 9.2 W 26 41 14 22 - - 0.0
09/04:00pm 20.0 13.6 1.0 28 9.4 W 24 44 13 24 - - 0.0
09/03:30pm 20.1 12.9 1.0 28 9.5 W 28 46 15 25 - - 0.0
09/03:06pm 19.7 12.4 0.2 27 9.5 W 28 48 15 26 - - 0.0
09/03:00pm 19.6 12.8 0.6 28 9.3 W 26 44 14 24 - - 0.0
09/02:47pm 19.6 12.0 0.6 28 9.3 W 30 48 16 26 - - 0.0
09/02:30pm 19.3 11.0 -0.1 27 9.4 W 33 52 18 28 - - 0.0
09/02:14pm 19.9 12.5 -0.7 25 9.9 W 28 46 15 25 - - 0.0
09/02:00pm 19.6 12.5 -1.5 24 9.9 W 26 43 14 23 - - 0.0
09/01:33pm 19.2 11.3 -1.3 25 9.7 WNW 30 48 16 26 - - 0.0
09/01:30pm 19.0 10.7 -1.4 25 9.6 WNW 32 48 17 26 - - 0.0
09/01:03pm 19.3 11.7 0.4 28 9.2 WNW 30 50 16 27 - - 0.0
09/01:00pm 19.3 11.3 0.4 28 9.2 W 32 50 17 27 - - 0.0
09/12:39pm 18.9 11.7 0.5 29 9.0 W 28 46 15 25 - - 0.0
09/12:30pm 18.7 11.4 -0.2 28 9.1 W 28 44 15 24 - - 0.0
09/12:00pm 19.1 12.5 -0.3 27 9.3 W 24 41 13 22 - - 0.0
09/11:30am 19.9 14.0 -2.4 22 10.3 W 19 37 10 20 - - 0.0
09/11:00am 20.3 14.1 -4.8 18 11.1 WSW 19 35 10 19 - - 0.0
09/10:30am 20.4 13.5 -6.2 16 11.5 W 22 39 12 21 - - 0.0
09/10:00am 19.1 12.3 -5.0 19 10.5 W 22 39 12 21 - - 0.0
09/09:30am 18.4 11.2 -5.6 19 10.3 W 24 35 13 19 - - 0.0
09/09:00am 17.5 11.3 -3.3 24 9.3 W 20 37 11 20 - - 0.0
09/08:30am 16.6 10.0 -3.5 25 8.9 W 22 37 12 20 - - 0.0
09/08:00am 16.1 9.5 -3.4 26 8.6 W 22 39 12 21 - - 0.0
09/07:30am 15.7 10.8 -3.2 27 8.3 W 13 28 7 15 - - 0.0
09/07:00am 15.2 9.5 -3.6 27 8.2 W 17 33 9 18 - - 0.0
09/06:30am 14.7 9.0 -3.6 28 7.9 WSW 17 32 9 17 - - 0.0
09/06:00am 13.7 8.8 -3.1 31 7.3 WSW 13 24 7 13 - - 0.0
09/05:30am 14.2 8.9 -3.6 29 7.7 W 15 26 8 14 - - 0.0
09/05:00am 13.7 8.1 -2.7 32 7.2 W 17 33 9 18 - - 0.0
09/04:30am 13.6 8.8 -2.3 33 7.0 WSW 13 28 7 15 - - 0.0
09/04:00am 13.4 8.3 -2.1 34 6.8 WSW 15 28 8 15 - - 0.0
09/03:30am 13.4 8.4 -1.3 36 6.6 WSW 15 30 8 16 - - 0.0
09/03:00am 13.5 9.2 0.9 42 5.9 WSW 13 26 7 14 - - 0.0
09/02:30am 13.6 8.6 1.6 44 5.7 W 17 33 9 18 - - 0.0
09/02:00am 13.7 9.1 1.7 44 5.8 W 15 30 8 16 - - 0.0
09/01:30am 13.5 8.3 2.4 47 5.4 W 19 32 10 17 - - 0.0
09/01:00am 12.3 9.0 4.3 58 4.0 WSW 11 28 6 15 - - 0.0
09/12:57am 11.3 8.8 4.5 63 3.4 W 7 24 4 13 - - 0.0
09/12:30am 6.1 3.9 3.6 84 1.2 NE 4 7 2 4 - - 0.0
09/12:00am 6.5 5.1 5.3 92 0.6 SW 2 4 1 2 - - 0.0
 
Date/Time
EDT
Temp
°C
App
Temp
°C
Dew
Point
°C
Rel
Hum
%
Delta-T
°C
Wind Press
QNH
hPa
Press
MSL
hPa
Rain since
9am
mm
Dir  Spd
km/h
Gust
km/h
Spd
kts
Gust
kts
08/11:30pm 6.1 4.8 4.3 88 0.9 CALM 0 0 0 0 - - 0.0
08/11:00pm 6.5 4.9 4.5 87 1.0 W 2 4 1 2 - - 0.0
08/10:30pm 7.6 5.9 6.1 90 0.8 SW 4 6 2 3 - - 0.0
08/10:00pm 7.5 6.1 5.5 87 1.0 SW 2 6 1 3 - - 0.0
08/09:30pm 8.5 7.1 5.4 81 1.5 SW 2 6 1 3 - - 0.0
08/09:00pm 10.7 9.5 6.3 74 2.3 SW 2 4 1 2 - - 0.0
08/08:30pm 12.7 11.7 7.4 70 2.8 NE 2 6 1 3 - - 0.0
08/08:00pm 13.6 11.3 7.4 66 3.3 E 9 17 5 9 - - 0.0
08/07:30pm 16.0 13.1 6.4 53 5.1 ESE 11 24 6 13 - - 0.0
08/07:00pm 19.4 16.9 3.6 35 8.2 SSW 6 11 3 6 - - 0.0
08/06:30pm 19.1 16.2 2.5 33 8.4 E 7 15 4 8 - - 0.0
08/06:00pm 19.9 17.1 3.2 33 8.6 ESE 7 17 4 9 - - 0.0
08/05:30pm 20.0 17.5 3.7 34 8.5 ENE 6 13 3 7 - - 0.0
08/05:00pm 19.9 17.2 3.6 34 8.5 E 7 20 4 11 - - 0.0
08/04:30pm 20.0 17.9 3.7 34 8.5 NNE 4 9 2 5 - - 0.0
08/04:00pm 18.3 15.9 4.1 39 7.4 ENE 6 11 3 6 - - 0.0
08/03:30pm 19.6 16.4 3.3 34 8.4 ESE 9 19 5 10 - - 0.0
08/03:00pm 20.1 17.6 5.0 37 8.1 ENE 7 13 4 7 - - 0.0
08/02:30pm 19.9 17.3 4.0 35 8.3 SSE 7 19 4 10 - - 0.0
08/02:00pm 19.9 16.6 4.8 37 8.0 ENE 11 22 6 12 - - 0.0
08/01:30pm 18.8 15.3 3.4 36 7.9 SE 11 24 6 13 - - 0.0
08/01:00pm 18.6 15.5 3.6 37 7.7 SE 9 17 5 9 - - 0.0
08/12:30pm 19.1 15.8 4.5 38 7.7 E 11 20 6 11 - - 0.0
08/12:00pm 18.3 15.9 4.1 39 7.4 NE 6 13 3 7 - - 0.0
08/11:30am 16.4 13.5 2.8 40 6.8 ESE 7 15 4 8 - - 0.0
08/11:00am 17.4 14.2 3.3 39 7.2 E 9 17 5 9 - - 0.0
08/10:30am 15.8 12.8 1.9 39 6.8 SSE 7 17 4 9 - - 0.0
08/10:00am 16.0 12.1 1.3 37 7.1 SE 11 20 6 11 - - 0.0
08/09:30am 15.0 12.7 2.5 43 6.2 S 4 13 2 7 - - 0.0
08/09:00am 14.0 11.2 2.3 45 5.7 ENE 6 15 3 8 - - 0.0
08/08:30am 12.7 9.7 1.7 47 5.2 E 7 13 4 7 - - 0.0
08/08:00am 11.4 8.2 0.5 47 5.0 ENE 7 11 4 6 - - 0.0
08/07:30am 9.7 6.9 -3.6 39 5.5 SW 2 6 1 3 - - 0.0
08/07:00am 5.6 3.6 2.4 80 1.5 SW 2 4 1 2 - - 0.0
08/06:30am 3.6 1.5 2.0 89 0.7 WNW 2 4 1 2 - - 0.0
08/06:00am 2.1 -0.1 0.8 91 0.6 S 2 6 1 3 - - 0.0
08/05:30am 2.3 0.2 1.6 95 0.3 SW 2 9 1 5 - - 0.0
08/05:00am 1.7 -0.8 1.4 98 0.1 SW 4 6 2 3 - - 0.0
08/04:30am 0.5 -1.8 0.1 97 0.2 SW 2 4 1 2 - - 0.0
08/04:00am 0.0 -2.1 -0.8 94 0.3 CALM 0 2 0 1 - - 0.0
08/03:30am 0.7 -1.6 0.1 96 0.2 SW 2 4 1 2 - - 0.0
08/03:00am 0.1 -2.7 -0.7 94 0.3 SW 4 7 2 4 - - 0.0
08/02:30am 0.6 -1.5 -0.5 92 0.4 CALM 0 0 0 0 - - 0.0
08/02:00am 1.4 -1.2 0.7 95 0.3 SW 4 6 2 3 - - 0.0
08/01:30am 1.2 -1.1 0.3 94 0.4 WSW 2 6 1 3 - - 0.0
08/01:00am 1.0 -1.4 -0.1 92 0.5 WSW 2 4 1 2 - - 0.0
08/12:30am 1.6 -0.4 0.1 90 0.6 CALM 0 2 0 1 - - 0.0
08/12:00am 2.2 0.1 -0.5 82 1.1 CALM 0 4 0 2 - - 0.0
 
Date/Time
EDT
Temp
°C
App
Temp
°C
Dew
Point
°C
Rel
Hum
%
Delta-T
°C
Wind Press
QNH
hPa
Press
MSL
hPa
Rain since
9am
mm
Dir  Spd
km/h
Gust
km/h
Spd
kts
Gust
kts
07/11:30pm 2.5 0.2 0.4 86 0.9 NNE 2 2 1 1 - - 0.0
07/11:00pm 2.6 0.6 -0.2 82 1.2 CALM 0 0 0 0 - - 0.0
07/10:30pm 3.4 1.5 0.5 81 1.2 CALM 0 2 0 1 - - 0.0
07/10:00pm 4.4 2.5 0.4 75 1.7 CALM 0 2 0 1 - - 0.0
07/09:30pm 5.8 3.6 1.0 71 2.1 W 2 6 1 3 - - 0.0
07/09:00pm 6.6 3.6 0.9 67 2.5 W 6 9 3 5 - - 0.0
07/08:30pm 9.3 6.8 1.7 59 3.5 WNW 4 9 2 5 - - 0.0
07/08:00pm 10.2 7.3 1.6 55 4.0 W 6 13 3 7 - - 0.0
07/07:30pm 11.0 7.2 1.8 53 4.3 WNW 11 20 6 11 - - 0.0

Latest Capital City Observations: Canberra | Sydney | Melbourne | Brisbane | Adelaide | Perth | Hobart | Darwin

Other formats

Comma delimited format used in spreadsheet applications
http://www.bom.gov.au/fwo/IDN60903/IDN60903.94915.axf

JavaScript Object Notation format (JSON) in row-major order
http://www.bom.gov.au/fwo/IDN60903/IDN60903.94915.json

Data quality

Most of these data are generated automatically and are frequently updated. Quality checks on data are not normally performed. It is possible for incorrect values to appear. Refer to information at About Latest Weather Observations and please check the disclaimer before using these data.